sensor_id;sensor_type;location;lat;lon;timestamp;pressure;altitude;pressure_sealevel;temperature;humidity
46464;BME280;32161;48.148;-1.554;2023-06-10T00:02:25;100357.72;;;20.98;100.00
46464;BME280;32161;48.148;-1.554;2023-06-10T00:04:53;100352.50;;;20.97;100.00
46464;BME280;32161;48.148;-1.554;2023-06-10T00:07:21;100356.28;;;21.01;100.00
46464;BME280;32161;48.148;-1.554;2023-06-10T00:09:48;100343.28;;;21.02;100.00
46464;BME280;32161;48.148;-1.554;2023-06-10T00:12:16;100331.75;;;21.00;100.00
46464;BME280;32161;48.148;-1.554;2023-06-10T00:14:46;100328.78;;;20.96;100.00
46464;BME280;32161;48.148;-1.554;2023-06-10T00:17:16;100329.38;;;20.93;100.00
46464;BME280;32161;48.148;-1.554;2023-06-10T00:19:46;100329.00;;;20.86;100.00
46464;BME280;32161;48.148;-1.554;2023-06-10T00:22:13;100338.72;;;20.83;100.00
46464;BME280;32161;48.148;-1.554;2023-06-10T00:24:41;100330.44;;;20.83;100.00
46464;BME280;32161;48.148;-1.554;2023-06-10T00:27:09;100332.38;;;20.83;100.00
46464;BME280;32161;48.148;-1.554;2023-06-10T00:29:37;100327.97;;;20.82;100.00
46464;BME280;32161;48.148;-1.554;2023-06-10T00:32:06;100313.56;;;20.85;100.00
46464;BME280;32161;48.148;-1.554;2023-06-10T00:34:33;100316.81;;;20.87;100.00
46464;BME280;32161;48.148;-1.554;2023-06-10T00:37:03;100320.69;;;20.86;100.00
46464;BME280;32161;48.148;-1.554;2023-06-10T00:39:31;100312.94;;;20.88;100.00
46464;BME280;32161;48.148;-1.554;2023-06-10T00:41:58;100297.47;;;20.87;100.00
46464;BME280;32161;48.148;-1.554;2023-06-10T00:44:26;100302.50;;;20.85;100.00
46464;BME280;32161;48.148;-1.554;2023-06-10T00:46:54;100298.72;;;20.81;100.00
46464;BME280;32161;48.148;-1.554;2023-06-10T00:49:22;100295.44;;;20.79;100.00
46464;BME280;32161;48.148;-1.554;2023-06-10T00:51:51;100292.19;;;20.77;100.00
46464;BME280;32161;48.148;-1.554;2023-06-10T00:54:21;100291.38;;;20.76;100.00
46464;BME280;32161;48.148;-1.554;2023-06-10T00:56:49;100293.31;;;20.76;100.00
46464;BME280;32161;48.148;-1.554;2023-06-10T00:59:17;100304.56;;;20.65;100.00
46464;BME280;32161;48.148;-1.554;2023-06-10T01:01:46;100314.88;;;20.60;100.00
46464;BME280;32161;48.148;-1.554;2023-06-10T01:04:14;100318.50;;;20.60;100.00
46464;BME280;32161;48.148;-1.554;2023-06-10T01:06:56;100322.88;;;20.61;100.00
46464;BME280;32161;48.148;-1.554;2023-06-10T01:09:36;100322.56;;;20.63;100.00
46464;BME280;32161;48.148;-1.554;2023-06-10T01:12:11;100325.84;;;20.65;100.00
46464;BME280;32161;48.148;-1.554;2023-06-10T01:14:41;100327.47;;;20.66;100.00
46464;BME280;32161;48.148;-1.554;2023-06-10T01:17:11;100327.81;;;20.64;100.00
46464;BME280;32161;48.148;-1.554;2023-06-10T01:19:42;100334.44;;;20.63;100.00
46464;BME280;32161;48.148;-1.554;2023-06-10T01:22:12;100340.47;;;20.65;100.00
46464;BME280;32161;48.148;-1.554;2023-06-10T01:24:42;100347.63;;;20.66;100.00
46464;BME280;32161;48.148;-1.554;2023-06-10T01:27:14;100348.97;;;20.69;100.00
46464;BME280;32161;48.148;-1.554;2023-06-10T01:29:48;100356.44;;;20.68;100.00
46464;BME280;32161;48.148;-1.554;2023-06-10T01:32:23;100357.53;;;20.67;100.00
46464;BME280;32161;48.148;-1.554;2023-06-10T01:34:56;100360.63;;;20.66;100.00
46464;BME280;32161;48.148;-1.554;2023-06-10T01:37:26;100351.72;;;20.69;100.00
46464;BME280;32161;48.148;-1.554;2023-06-10T01:39:57;100350.91;;;20.68;100.00
46464;BME280;32161;48.148;-1.554;2023-06-10T01:42:25;100355.63;;;20.68;100.00
46464;BME280;32161;48.148;-1.554;2023-06-10T01:44:53;100350.38;;;20.66;100.00
46464;BME280;32161;48.148;-1.554;2023-06-10T01:47:21;100352.34;;;20.66;100.00
46464;BME280;32161;48.148;-1.554;2023-06-10T01:49:48;100340.97;;;20.67;100.00
46464;BME280;32161;48.148;-1.554;2023-06-10T01:52:16;100340.47;;;20.65;100.00
46464;BME280;32161;48.148;-1.554;2023-06-10T01:54:45;100327.59;;;20.61;100.00
46464;BME280;32161;48.148;-1.554;2023-06-10T01:57:13;100323.50;;;20.58;100.00
46464;BME280;32161;48.148;-1.554;2023-06-10T01:59:40;100320.72;;;20.58;100.00
46464;BME280;32161;48.148;-1.554;2023-06-10T02:02:10;100310.81;;;20.57;100.00
46464;BME280;32161;48.148;-1.554;2023-06-10T02:04:38;100310.00;;;20.57;100.00
46464;BME280;32161;48.148;-1.554;2023-06-10T02:07:06;100297.31;;;20.56;100.00
46464;BME280;32161;48.148;-1.554;2023-06-10T02:09:34;100287.72;;;20.53;100.00
46464;BME280;32161;48.148;-1.554;2023-06-10T02:12:05;100291.09;;;20.50;100.00
46464;BME280;32161;48.148;-1.554;2023-06-10T02:14:33;100285.00;;;20.48;100.00
46464;BME280;32161;48.148;-1.554;2023-06-10T02:17:01;100288.41;;;20.45;100.00
46464;BME280;32161;48.148;-1.554;2023-06-10T02:19:29;100288.69;;;20.43;100.00
46464;BME280;32161;48.148;-1.554;2023-06-10T02:21:56;100295.03;;;20.44;100.00
46464;BME280;32161;48.148;-1.554;2023-06-10T02:24:24;100294.22;;;20.43;100.00
46464;BME280;32161;48.148;-1.554;2023-06-10T02:26:52;100280.13;;;20.45;100.00
46464;BME280;32161;48.148;-1.554;2023-06-10T02:29:20;100285.66;;;20.45;100.00
46464;BME280;32161;48.148;-1.554;2023-06-10T02:31:48;100292.78;;;20.46;100.00
46464;BME280;32161;48.148;-1.554;2023-06-10T02:34:16;100287.56;;;20.44;100.00
46464;BME280;32161;48.148;-1.554;2023-06-10T02:36:43;100284.81;;;20.44;100.00
46464;BME280;32161;48.148;-1.554;2023-06-10T02:39:11;100288.56;;;20.48;100.00
46464;BME280;32161;48.148;-1.554;2023-06-10T02:41:39;100291.91;;;20.51;100.00
46464;BME280;32161;48.148;-1.554;2023-06-10T02:44:06;100296.50;;;20.55;100.00
46464;BME280;32161;48.148;-1.554;2023-06-10T02:46:35;100299.25;;;20.55;100.00
46464;BME280;32161;48.148;-1.554;2023-06-10T02:49:03;100301.81;;;20.52;100.00
46464;BME280;32161;48.148;-1.554;2023-06-10T02:51:30;100313.16;;;20.50;100.00
46464;BME280;32161;48.148;-1.554;2023-06-10T02:53:58;100310.66;;;20.48;100.00
46464;BME280;32161;48.148;-1.554;2023-06-10T02:56:26;100309.03;;;20.47;100.00
46464;BME280;32161;48.148;-1.554;2023-06-10T02:58:53;100314.06;;;20.45;100.00
46464;BME280;32161;48.148;-1.554;2023-06-10T03:01:21;100318.78;;;20.45;100.00
46464;BME280;32161;48.148;-1.554;2023-06-10T03:03:50;100319.06;;;20.43;100.00
46464;BME280;32161;48.148;-1.554;2023-06-10T03:06:18;100319.16;;;20.38;100.00
46464;BME280;32161;48.148;-1.554;2023-06-10T03:08:46;100319.56;;;20.32;100.00
46464;BME280;32161;48.148;-1.554;2023-06-10T03:11:13;100319.38;;;20.28;100.00
46464;BME280;32161;48.148;-1.554;2023-06-10T03:13:41;100319.97;;;20.25;100.00
46464;BME280;32161;48.148;-1.554;2023-06-10T03:16:08;100321.69;;;20.21;100.00
46464;BME280;32161;48.148;-1.554;2023-06-10T03:18:38;100323.66;;;20.20;100.00
46464;BME280;32161;48.148;-1.554;2023-06-10T03:21:07;100326.41;;;20.20;100.00
46464;BME280;32161;48.148;-1.554;2023-06-10T03:23:36;100325.28;;;20.21;100.00
46464;BME280;32161;48.148;-1.554;2023-06-10T03:26:04;100324.19;;;20.22;100.00
46464;BME280;32161;48.148;-1.554;2023-06-10T03:28:32;100320.81;;;20.26;100.00
46464;BME280;32161;48.148;-1.554;2023-06-10T03:30:59;100326.81;;;20.28;100.00
46464;BME280;32161;48.148;-1.554;2023-06-10T03:33:27;100323.47;;;20.31;100.00
46464;BME280;32161;48.148;-1.554;2023-06-10T03:35:54;100323.47;;;20.31;100.00
46464;BME280;32161;48.148;-1.554;2023-06-10T03:38:23;100321.53;;;20.31;100.00
46464;BME280;32161;48.148;-1.554;2023-06-10T03:40:51;100328.97;;;20.31;100.00
46464;BME280;32161;48.148;-1.554;2023-06-10T03:43:18;100330.13;;;20.30;100.00
46464;BME280;32161;48.148;-1.554;2023-06-10T03:45:46;100339.22;;;20.30;100.00
46464;BME280;32161;48.148;-1.554;2023-06-10T03:48:15;100333.69;;;20.30;100.00
46464;BME280;32161;48.148;-1.554;2023-06-10T03:50:43;100335.94;;;20.28;100.00
46464;BME280;32161;48.148;-1.554;2023-06-10T03:53:10;100339.81;;;20.27;100.00
46464;BME280;32161;48.148;-1.554;2023-06-10T03:55:39;100347.19;;;20.32;100.00
46464;BME280;32161;48.148;-1.554;2023-06-10T03:58:07;100346.69;;;20.30;100.00
46464;BME280;32161;48.148;-1.554;2023-06-10T04:00:35;100348.41;;;20.26;100.00
46464;BME280;32161;48.148;-1.554;2023-06-10T04:03:08;100345.34;;;20.27;100.00
46464;BME280;32161;48.148;-1.554;2023-06-10T04:05:40;100350.03;;;20.27;100.00
46464;BME280;32161;48.148;-1.554;2023-06-10T04:08:08;100346.75;;;20.24;100.00
46464;BME280;32161;48.148;-1.554;2023-06-10T04:10:36;100340.41;;;20.24;100.00
46464;BME280;32161;48.148;-1.554;2023-06-10T04:13:05;100339.06;;;20.21;100.00
46464;BME280;32161;48.148;-1.554;2023-06-10T04:15:32;100344.59;;;20.21;100.00
46464;BME280;32161;48.148;-1.554;2023-06-10T04:18:00;100338.56;;;20.19;100.00
46464;BME280;32161;48.148;-1.554;2023-06-10T04:20:28;100338.56;;;20.19;100.00
46464;BME280;32161;48.148;-1.554;2023-06-10T04:22:55;100333.56;;;20.21;100.00
46464;BME280;32161;48.148;-1.554;2023-06-10T04:25:23;100335.22;;;20.22;100.00
46464;BME280;32161;48.148;-1.554;2023-06-10T04:27:52;100332.03;;;20.15;100.00
46464;BME280;32161;48.148;-1.554;2023-06-10T04:30:21;100345.09;;;20.10;100.00
46464;BME280;32161;48.148;-1.554;2023-06-10T04:32:49;100347.25;;;20.13;100.00
46464;BME280;32161;48.148;-1.554;2023-06-10T04:35:16;100355.25;;;20.14;100.00
46464;BME280;32161;48.148;-1.554;2023-06-10T04:37:44;100352.97;;;20.16;100.00
46464;BME280;32161;48.148;-1.554;2023-06-10T04:40:12;100347.19;;;20.18;100.00
46464;BME280;32161;48.148;-1.554;2023-06-10T04:42:39;100348.00;;;20.18;100.00
46464;BME280;32161;48.148;-1.554;2023-06-10T04:45:09;100350.66;;;20.23;100.00
46464;BME280;32161;48.148;-1.554;2023-06-10T04:47:38;100342.91;;;20.26;100.00
46464;BME280;32161;48.148;-1.554;2023-06-10T04:50:06;100348.31;;;20.31;100.00
46464;BME280;32161;48.148;-1.554;2023-06-10T04:52:34;100355.97;;;20.34;100.00
46464;BME280;32161;48.148;-1.554;2023-06-10T04:55:02;100353.31;;;20.29;100.00
46464;BME280;32161;48.148;-1.554;2023-06-10T04:57:29;100362.72;;;20.28;100.00
46464;BME280;32161;48.148;-1.554;2023-06-10T04:59:57;100364.88;;;20.31;100.00
46464;BME280;32161;48.148;-1.554;2023-06-10T05:02:24;100374.88;;;20.27;100.00
46464;BME280;32161;48.148;-1.554;2023-06-10T05:04:53;100391.66;;;20.30;100.00
46464;BME280;32161;48.148;-1.554;2023-06-10T05:07:22;100390.22;;;20.33;100.00
46464;BME280;32161;48.148;-1.554;2023-06-10T05:09:50;100398.50;;;20.33;100.00
46464;BME280;32161;48.148;-1.554;2023-06-10T05:12:17;100395.13;;;20.36;100.00
46464;BME280;32161;48.148;-1.554;2023-06-10T05:14:45;100403.63;;;20.39;100.00
46464;BME280;32161;48.148;-1.554;2023-06-10T05:17:12;100398.63;;;20.41;100.00
46464;BME280;32161;48.148;-1.554;2023-06-10T05:19:40;100396.38;;;20.43;100.00
46464;BME280;32161;48.148;-1.554;2023-06-10T05:22:10;100393.81;;;20.47;100.00
46464;BME280;32161;48.148;-1.554;2023-06-10T05:24:39;100394.06;;;20.51;100.00
46464;BME280;32161;48.148;-1.554;2023-06-10T05:27:07;100391.81;;;20.53;100.00
46464;BME280;32161;48.148;-1.554;2023-06-10T05:29:35;100390.16;;;20.52;100.00
46464;BME280;32161;48.148;-1.554;2023-06-10T05:32:02;100391.63;;;20.49;100.00
46464;BME280;32161;48.148;-1.554;2023-06-10T05:34:30;100390.75;;;20.48;100.00
46464;BME280;32161;48.148;-1.554;2023-06-10T05:36:58;100400.97;;;20.48;100.00
46464;BME280;32161;48.148;-1.554;2023-06-10T05:39:27;100403.47;;;20.50;100.00
46464;BME280;32161;48.148;-1.554;2023-06-10T05:41:55;100398.78;;;20.50;100.00
46464;BME280;32161;48.148;-1.554;2023-06-10T05:44:25;100402.56;;;20.54;100.00
46464;BME280;32161;48.148;-1.554;2023-06-10T05:46:52;100406.66;;;20.57;100.00
46464;BME280;32161;48.148;-1.554;2023-06-10T05:49:20;100406.34;;;20.58;100.00
46464;BME280;32161;48.148;-1.554;2023-06-10T05:51:48;100404.09;;;20.60;100.00
46464;BME280;32161;48.148;-1.554;2023-06-10T05:54:15;100407.69;;;20.61;100.00
46464;BME280;32161;48.148;-1.554;2023-06-10T05:56:44;100405.13;;;20.64;100.00
46464;BME280;32161;48.148;-1.554;2023-06-10T05:59:12;100409.63;;;20.60;100.00
46464;BME280;32161;48.148;-1.554;2023-06-10T06:01:40;100414.94;;;20.57;100.00
46464;BME280;32161;48.148;-1.554;2023-06-10T06:04:07;100414.94;;;20.57;100.00
46464;BME280;32161;48.148;-1.554;2023-06-10T06:06:38;100417.06;;;20.60;100.00
46464;BME280;32161;48.148;-1.554;2023-06-10T06:09:06;100420.69;;;20.60;100.00
46464;BME280;32161;48.148;-1.554;2023-06-10T06:11:34;100424.47;;;20.64;100.00
46464;BME280;32161;48.148;-1.554;2023-06-10T06:14:03;100423.00;;;20.67;100.00
46464;BME280;32161;48.148;-1.554;2023-06-10T06:16:32;100421.06;;;20.67;100.00
46464;BME280;32161;48.148;-1.554;2023-06-10T06:18:59;100424.34;;;20.69;100.00
46464;BME280;32161;48.148;-1.554;2023-06-10T06:21:27;100424.25;;;20.75;100.00
46464;BME280;32161;48.148;-1.554;2023-06-10T06:23:54;100437.44;;;20.78;100.00
46464;BME280;32161;48.148;-1.554;2023-06-10T06:26:22;100433.88;;;20.77;100.00
46464;BME280;32161;48.148;-1.554;2023-06-10T06:28:49;100438.25;;;20.78;100.00
46464;BME280;32161;48.148;-1.554;2023-06-10T06:31:19;100430.41;;;20.85;100.00
46464;BME280;32161;48.148;-1.554;2023-06-10T06:33:47;100430.00;;;20.92;100.00
46464;BME280;32161;48.148;-1.554;2023-06-10T06:36:14;100440.72;;;20.93;100.00
46464;BME280;32161;48.148;-1.554;2023-06-10T06:38:42;100441.75;;;20.84;100.00
46464;BME280;32161;48.148;-1.554;2023-06-10T06:41:09;100435.72;;;20.82;100.00
46464;BME280;32161;48.148;-1.554;2023-06-10T06:43:37;100441.84;;;20.92;100.00
46464;BME280;32161;48.148;-1.554;2023-06-10T06:46:05;100441.97;;;20.87;100.00
46464;BME280;32161;48.148;-1.554;2023-06-10T06:48:34;100442.34;;;20.94;100.00
46464;BME280;32161;48.148;-1.554;2023-06-10T06:51:01;100443.00;;;20.91;100.00
46464;BME280;32161;48.148;-1.554;2023-06-10T06:53:29;100446.38;;;20.88;100.00
46464;BME280;32161;48.148;-1.554;2023-06-10T06:55:56;100452.38;;;20.90;100.00
46464;BME280;32161;48.148;-1.554;2023-06-10T06:58:24;100450.66;;;20.94;100.00
46464;BME280;32161;48.148;-1.554;2023-06-10T07:00:52;100444.84;;;20.96;100.00
46464;BME280;32161;48.148;-1.554;2023-06-10T07:03:20;100452.50;;;20.99;100.00
46464;BME280;32161;48.148;-1.554;2023-06-10T07:05:48;100464.06;;;21.01;100.00
46464;BME280;32161;48.148;-1.554;2023-06-10T07:08:16;100458.13;;;21.08;100.00
46464;BME280;32161;48.148;-1.554;2023-06-10T07:10:44;100457.13;;;21.04;100.00
46464;BME280;32161;48.148;-1.554;2023-06-10T07:13:11;100464.28;;;21.05;100.00
46464;BME280;32161;48.148;-1.554;2023-06-10T07:15:39;100471.13;;;21.07;100.00
46464;BME280;32161;48.148;-1.554;2023-06-10T07:18:06;100468.25;;;21.12;100.00
46464;BME280;32161;48.148;-1.554;2023-06-10T07:20:34;100473.47;;;21.14;100.00
46464;BME280;32161;48.148;-1.554;2023-06-10T07:23:03;100478.38;;;21.17;100.00
46464;BME280;32161;48.148;-1.554;2023-06-10T07:25:31;100485.25;;;21.19;100.00
46464;BME280;32161;48.148;-1.554;2023-06-10T07:27:59;100488.50;;;21.21;100.00
46464;BME280;32161;48.148;-1.554;2023-06-10T07:30:28;100493.75;;;21.23;100.00
46464;BME280;32161;48.148;-1.554;2023-06-10T07:32:55;100498.75;;;21.21;100.00
46464;BME280;32161;48.148;-1.554;2023-06-10T07:35:23;100502.97;;;21.18;100.00
46464;BME280;32161;48.148;-1.554;2023-06-10T07:37:51;100509.09;;;21.15;100.00
46464;BME280;32161;48.148;-1.554;2023-06-10T07:40:22;100509.41;;;21.14;100.00
46464;BME280;32161;48.148;-1.554;2023-06-10T07:42:49;100505.81;;;21.13;100.00
46464;BME280;32161;48.148;-1.554;2023-06-10T07:45:19;100503.06;;;21.13;100.00
46464;BME280;32161;48.148;-1.554;2023-06-10T07:47:46;100505.31;;;21.11;100.00
46464;BME280;32161;48.148;-1.554;2023-06-10T07:50:14;100507.56;;;21.09;100.00
46464;BME280;32161;48.148;-1.554;2023-06-10T07:52:41;100503.97;;;21.09;100.00
46464;BME280;32161;48.148;-1.554;2023-06-10T07:55:09;100505.63;;;21.10;100.00
46464;BME280;32161;48.148;-1.554;2023-06-10T07:57:38;100509.72;;;21.12;100.00
46464;BME280;32161;48.148;-1.554;2023-06-10T08:00:07;100515.84;;;21.09;100.00
46464;BME280;32161;48.148;-1.554;2023-06-10T08:02:35;100516.88;;;21.13;100.00
46464;BME280;32161;48.148;-1.554;2023-06-10T08:05:04;100516.28;;;21.16;100.00
46464;BME280;32161;48.148;-1.554;2023-06-10T08:07:32;100522.81;;;21.20;100.00
46464;BME280;32161;48.148;-1.554;2023-06-10T08:10:00;100515.47;;;21.30;100.00
46464;BME280;32161;48.148;-1.554;2023-06-10T08:12:28;100521.63;;;21.40;100.00
46464;BME280;32161;48.148;-1.554;2023-06-10T08:14:57;100531.63;;;21.23;100.00
46464;BME280;32161;48.148;-1.554;2023-06-10T08:17:24;100543.09;;;21.16;100.00
46464;BME280;32161;48.148;-1.554;2023-06-10T08:19:52;100541.16;;;21.16;100.00
46464;BME280;32161;48.148;-1.554;2023-06-10T08:22:19;100541.84;;;21.08;100.00
46464;BME280;32161;48.148;-1.554;2023-06-10T08:24:47;100539.00;;;21.13;100.00
46464;BME280;32161;48.148;-1.554;2023-06-10T08:27:15;100543.91;;;21.16;100.00
46464;BME280;32161;48.148;-1.554;2023-06-10T08:29:43;100543.19;;;21.25;100.00
46464;BME280;32161;48.148;-1.554;2023-06-10T08:32:15;100542.59;;;21.28;100.00
46464;BME280;32161;48.148;-1.554;2023-06-10T08:34:43;100532.56;;;21.32;100.00
46464;BME280;32161;48.148;-1.554;2023-06-10T08:37:10;100535.75;;;21.39;100.00
46464;BME280;32161;48.148;-1.554;2023-06-10T08:39:38;100537.81;;;21.47;100.00
46464;BME280;32161;48.148;-1.554;2023-06-10T08:42:15;100531.66;;;21.50;100.00
46464;BME280;32161;48.148;-1.554;2023-06-10T08:44:53;100539.44;;;21.48;100.00
46464;BME280;32161;48.148;-1.554;2023-06-10T08:47:24;100545.97;;;21.52;100.00
46464;BME280;32161;48.148;-1.554;2023-06-10T08:49:53;100532.88;;;21.58;100.00
46464;BME280;32161;48.148;-1.554;2023-06-10T08:52:24;100539.09;;;21.63;100.00
46464;BME280;32161;48.148;-1.554;2023-06-10T08:54:59;100547.59;;;21.67;100.00
46464;BME280;32161;48.148;-1.554;2023-06-10T08:57:27;100556.44;;;21.69;100.00
46464;BME280;32161;48.148;-1.554;2023-06-10T08:59:56;100549.44;;;21.72;100.00
46464;BME280;32161;48.148;-1.554;2023-06-10T09:02:25;100548.75;;;21.80;100.00
46464;BME280;32161;48.148;-1.554;2023-06-10T09:04:56;100557.25;;;21.83;100.00
46464;BME280;32161;48.148;-1.554;2023-06-10T09:07:23;100555.47;;;21.87;100.00
46464;BME280;32161;48.148;-1.554;2023-06-10T09:09:52;100570.00;;;21.93;100.00
46464;BME280;32161;48.148;-1.554;2023-06-10T09:12:20;100563.53;;;21.98;100.00
46464;BME280;32161;48.148;-1.554;2023-06-10T09:14:48;100561.50;;;22.03;100.00
46464;BME280;32161;48.148;-1.554;2023-06-10T09:17:16;100568.03;;;22.07;100.00
46464;BME280;32161;48.148;-1.554;2023-06-10T09:19:45;100567.91;;;22.12;100.00
46464;BME280;32161;48.148;-1.554;2023-06-10T09:22:13;100567.00;;;22.17;100.00
46464;BME280;32161;48.148;-1.554;2023-06-10T09:24:41;100566.38;;;22.20;100.00
46464;BME280;32161;48.148;-1.554;2023-06-10T09:27:09;100568.00;;;22.21;100.00
46464;BME280;32161;48.148;-1.554;2023-06-10T09:29:47;100576.22;;;22.26;100.00
46464;BME280;32161;48.148;-1.554;2023-06-10T09:32:16;100576.41;;;22.30;100.00
46464;BME280;32161;48.148;-1.554;2023-06-10T09:34:46;100579.88;;;22.35;100.00
46464;BME280;32161;48.148;-1.554;2023-06-10T09:37:22;100587.38;;;22.35;100.00
46464;BME280;32161;48.148;-1.554;2023-06-10T09:40:07;100591.50;;;22.24;100.00
46464;BME280;32161;48.148;-1.554;2023-06-10T09:42:38;100587.72;;;22.20;100.00
46464;BME280;32161;48.148;-1.554;2023-06-10T09:45:07;100589.81;;;22.14;100.00
46464;BME280;32161;48.148;-1.554;2023-06-10T09:47:35;100596.97;;;22.15;100.00
46464;BME280;32161;48.148;-1.554;2023-06-10T09:50:05;100591.63;;;22.18;100.00
46464;BME280;32161;48.148;-1.554;2023-06-10T09:52:33;100586.97;;;22.28;100.00
46464;BME280;32161;48.148;-1.554;2023-06-10T09:55:02;100583.06;;;22.29;100.00
46464;BME280;32161;48.148;-1.554;2023-06-10T10:00:03;100584.47;;;22.40;100.00
46464;BME280;32161;48.148;-1.554;2023-06-10T10:02:31;100593.78;;;22.44;100.00
46464;BME280;32161;48.148;-1.554;2023-06-10T10:05:04;100594.16;;;22.51;100.00
46464;BME280;32161;48.148;-1.554;2023-06-10T10:07:32;100599.91;;;22.55;100.00
46464;BME280;32161;48.148;-1.554;2023-06-10T10:10:02;100600.34;;;22.71;100.00
46464;BME280;32161;48.148;-1.554;2023-06-10T10:12:30;100599.22;;;22.72;100.00
46464;BME280;32161;48.148;-1.554;2023-06-10T10:14:58;100601.22;;;22.80;100.00
46464;BME280;32161;48.148;-1.554;2023-06-10T10:17:27;100594.94;;;22.88;100.00
46464;BME280;32161;48.148;-1.554;2023-06-10T10:20:00;100596.44;;;22.94;100.00
46464;BME280;32161;48.148;-1.554;2023-06-10T10:22:37;100598.59;;;22.97;100.00
46464;BME280;32161;48.148;-1.554;2023-06-10T10:25:10;100597.44;;;22.98;100.00
46464;BME280;32161;48.148;-1.554;2023-06-10T10:27:45;100602.34;;;23.01;99.17
46464;BME280;32161;48.148;-1.554;2023-06-10T10:30:16;100592.22;;;22.97;100.00
46464;BME280;32161;48.148;-1.554;2023-06-10T10:32:55;100591.91;;;22.98;99.33
46464;BME280;32161;48.148;-1.554;2023-06-10T10:35:25;100598.16;;;23.04;99.48
46464;BME280;32161;48.148;-1.554;2023-06-10T10:37:55;100589.47;;;22.97;99.94
46464;BME280;32161;48.148;-1.554;2023-06-10T10:40:23;100593.94;;;23.06;100.00
46464;BME280;32161;48.148;-1.554;2023-06-10T10:42:52;100598.38;;;23.16;100.00
46464;BME280;32161;48.148;-1.554;2023-06-10T10:45:22;100592.06;;;23.33;100.00
46464;BME280;32161;48.148;-1.554;2023-06-10T10:47:54;100592.78;;;23.47;100.00
46464;BME280;32161;48.148;-1.554;2023-06-10T10:50:23;100595.84;;;23.68;95.90
46464;BME280;32161;48.148;-1.554;2023-06-10T10:52:55;100591.53;;;23.62;95.26
46464;BME280;32161;48.148;-1.554;2023-06-10T10:55:25;100594.53;;;23.74;96.32
46464;BME280;32161;48.148;-1.554;2023-06-10T10:57:58;100596.22;;;24.01;92.31
46464;BME280;32161;48.148;-1.554;2023-06-10T11:00:29;100600.44;;;23.90;95.16
46464;BME280;32161;48.148;-1.554;2023-06-10T11:03:05;100593.13;;;23.94;95.20
46464;BME280;32161;48.148;-1.554;2023-06-10T11:05:40;100591.81;;;23.92;94.16
46464;BME280;32161;48.148;-1.554;2023-06-10T11:08:12;100603.22;;;23.90;94.72
46464;BME280;32161;48.148;-1.554;2023-06-10T11:10:42;100606.69;;;23.87;93.74
46464;BME280;32161;48.148;-1.554;2023-06-10T11:13:20;100596.53;;;23.82;94.25
46464;BME280;32161;48.148;-1.554;2023-06-10T11:15:49;100600.44;;;23.81;93.89
46464;BME280;32161;48.148;-1.554;2023-06-10T11:18:23;100609.28;;;23.83;92.57
46464;BME280;32161;48.148;-1.554;2023-06-10T11:21:00;100617.44;;;23.88;89.99
46464;BME280;32161;48.148;-1.554;2023-06-10T11:23:40;100610.97;;;23.62;91.69
46464;BME280;32161;48.148;-1.554;2023-06-10T11:26:13;100610.59;;;23.46;92.89
46464;BME280;32161;48.148;-1.554;2023-06-10T11:28:42;100609.22;;;23.35;93.37
46464;BME280;32161;48.148;-1.554;2023-06-10T11:31:19;100612.78;;;23.27;93.73
46464;BME280;32161;48.148;-1.554;2023-06-10T11:33:48;100607.50;;;23.17;95.26
46464;BME280;32161;48.148;-1.554;2023-06-10T11:36:16;100609.13;;;23.18;96.04
46464;BME280;32161;48.148;-1.554;2023-06-10T11:38:45;100612.75;;;23.18;96.03
46464;BME280;32161;48.148;-1.554;2023-06-10T11:41:14;100609.00;;;23.23;94.27
46464;BME280;32161;48.148;-1.554;2023-06-10T11:43:43;100612.81;;;23.04;95.31
46464;BME280;32161;48.148;-1.554;2023-06-10T11:46:11;100614.78;;;23.04;95.63
46464;BME280;32161;48.148;-1.554;2023-06-10T11:48:39;100615.44;;;23.09;97.13
46464;BME280;32161;48.148;-1.554;2023-06-10T11:51:07;100616.63;;;23.17;96.00
46464;BME280;32161;48.148;-1.554;2023-06-10T11:53:34;100615.34;;;23.14;95.37
46464;BME280;32161;48.148;-1.554;2023-06-10T11:56:04;100609.28;;;23.12;94.89
46464;BME280;32161;48.148;-1.554;2023-06-10T11:58:31;100618.59;;;23.17;94.90
46464;BME280;32161;48.148;-1.554;2023-06-10T12:00:59;100611.56;;;23.10;95.12
46464;BME280;32161;48.148;-1.554;2023-06-10T12:03:35;100614.44;;;23.05;95.47
46464;BME280;32161;48.148;-1.554;2023-06-10T12:06:05;100619.22;;;23.13;97.50
46464;BME280;32161;48.148;-1.554;2023-06-10T12:08:33;100611.97;;;23.26;96.21
46464;BME280;32161;48.148;-1.554;2023-06-10T12:11:09;100615.13;;;23.42;95.68
46464;BME280;32161;48.148;-1.554;2023-06-10T12:13:37;100611.16;;;23.66;96.71
46464;BME280;32161;48.148;-1.554;2023-06-10T12:16:13;100604.84;;;23.82;95.58
46464;BME280;32161;48.148;-1.554;2023-06-10T12:18:42;100608.16;;;24.02;94.87
46464;BME280;32161;48.148;-1.554;2023-06-10T12:21:23;100605.06;;;24.21;95.04
46464;BME280;32161;48.148;-1.554;2023-06-10T12:24:04;100600.38;;;24.39;90.29
46464;BME280;32161;48.148;-1.554;2023-06-10T12:26:42;100616.38;;;24.59;90.46
46464;BME280;32161;48.148;-1.554;2023-06-10T12:29:24;100612.13;;;24.70;89.80
46464;BME280;32161;48.148;-1.554;2023-06-10T12:31:57;100609.00;;;24.89;87.94
46464;BME280;32161;48.148;-1.554;2023-06-10T12:34:36;100604.56;;;24.97;88.21
46464;BME280;32161;48.148;-1.554;2023-06-10T12:37:10;100606.19;;;24.98;87.50
46464;BME280;32161;48.148;-1.554;2023-06-10T12:39:41;100608.81;;;25.12;86.62
46464;BME280;32161;48.148;-1.554;2023-06-10T12:42:12;100606.81;;;25.29;86.78
46464;BME280;32161;48.148;-1.554;2023-06-10T12:44:41;100604.75;;;25.47;84.97